Time;durP1;ratioP1;P1;durP2;ratioP2;P2;SDS_P1;SDS_P2;PMS_P1;PMS_P2;Temp;Humidity;BMP_temperature;BMP_pressure;BME280_temperature;BME280_humidity;BME280_pressure;Samples;Min_cycle;Max_cycle;Signal;HPM_P1;HPM_P2
2023/12/11 00:00:29;;;;;;;6.47;4.17;;;;;21.60;98916.00;;;;2071016;28;20294;-69
2023/12/11 00:01:33;;;;;;;7.17;3.90;;;;;21.60;98905.00;;;;2079953;28;20210;-70
2023/12/11 00:02:33;;;;;;;7.15;4.80;;;;;21.60;98918.00;;;;2075899;28;20384;-70
2023/12/11 00:03:33;;;;;;;8.57;5.17;;;;;21.60;98912.00;;;;2078465;28;20197;-70
2023/12/11 00:04:34;;;;;;;8.13;4.43;;;;;21.60;98925.00;;;;2080064;28;20205;-70
2023/12/11 00:05:40;;;;;;;7.40;3.77;;;;;21.60;98919.00;;;;2070909;28;20237;-70
2023/12/11 00:06:40;;;;;;;6.90;4.00;;;;;21.60;98923.00;;;;2078993;28;20213;-70
2023/12/11 00:07:40;;;;;;;8.13;4.40;;;;;21.60;98917.00;;;;2079640;28;20221;-70
2023/12/11 00:08:40;;;;;;;6.63;3.77;;;;;21.60;98919.00;;;;2079699;28;20258;-70
2023/12/11 00:09:41;;;;;;;8.03;4.10;;;;;21.60;98916.00;;;;2072272;28;20213;-70
2023/12/11 00:10:41;;;;;;;7.10;4.37;;;;;21.60;98909.00;;;;2087115;28;20213;-69
2023/12/11 00:11:41;;;;;;;5.20;3.70;;;;;21.60;98913.00;;;;2078792;28;20244;-69
2023/12/11 00:12:42;;;;;;;6.17;3.53;;;;;21.60;98920.00;;;;2075083;28;20315;-69
2023/12/11 00:13:42;;;;;;;8.07;4.23;;;;;21.60;98924.00;;;;2079450;28;20217;-69
2023/12/11 00:14:43;;;;;;;6.50;3.83;;;;;21.60;98912.00;;;;2070128;28;20233;-69
2023/12/11 00:15:43;;;;;;;7.57;4.40;;;;;21.50;98920.00;;;;2078926;28;20201;-69
2023/12/11 00:16:45;;;;;;;7.50;4.07;;;;;21.50;98921.00;;;;2079249;28;20217;-69
2023/12/11 00:17:45;;;;;;;7.32;3.85;;;;;21.60;98915.00;;;;2079658;28;20220;-69
2023/12/11 00:18:46;;;;;;;6.93;3.47;;;;;21.50;98916.00;;;;2079160;28;20685;-69
2023/12/11 00:19:46;;;;;;;7.80;4.00;;;;;21.50;98908.00;;;;2068834;28;20210;-69
2023/12/11 00:20:46;;;;;;;6.00;3.50;;;;;21.50;98917.00;;;;2087581;28;20212;-69
2023/12/11 00:21:47;;;;;;;6.30;3.70;;;;;21.50;98909.00;;;;2089618;28;20213;-69
2023/12/11 00:22:47;;;;;;;6.10;3.63;;;;;21.50;98919.00;;;;2079874;28;20213;-69
2023/12/11 00:23:47;;;;;;;6.07;3.60;;;;;21.50;98911.00;;;;2082583;28;20210;-69
2023/12/11 00:24:47;;;;;;;6.03;3.20;;;;;21.50;98912.00;;;;2070770;28;20216;-69
2023/12/11 00:25:48;;;;;;;6.70;3.47;;;;;21.50;98919.00;;;;2079128;28;20320;-69
2023/12/11 00:26:48;;;;;;;7.23;3.47;;;;;21.50;98916.00;;;;2080388;28;20245;-69
2023/12/11 00:27:48;;;;;;;11.90;3.63;;;;;21.40;98922.00;;;;2078958;28;20212;-69
2023/12/11 00:28:49;;;;;;;9.07;3.77;;;;;21.40;98910.00;;;;2080617;28;20213;-69
2023/12/11 00:29:49;;;;;;;12.47;4.77;;;;;21.40;98916.00;;;;2070031;28;20224;-69
2023/12/11 00:30:49;;;;;;;7.70;3.87;;;;;21.40;98922.00;;;;2080343;28;20222;-69
2023/12/11 00:31:50;;;;;;;10.07;3.70;;;;;21.40;98910.00;;;;2080245;28;20223;-69
2023/12/11 00:32:52;;;;;;;9.17;3.30;;;;;21.50;98912.00;;;;2076957;28;20224;-69
2023/12/11 00:33:52;;;;;;;7.15;4.00;;;;;21.50;98914.00;;;;2080045;28;20221;-69
2023/12/11 00:34:52;;;;;;;9.50;3.57;;;;;21.50;98914.00;;;;2071470;28;20253;-69
2023/12/11 00:35:52;;;;;;;9.50;3.57;;;;;21.50;98921.00;;;;2087628;28;20228;-69
2023/12/11 00:36:53;;;;;;;8.27;3.13;;;;;21.50;98918.00;;;;2085344;28;20648;-69
2023/12/11 00:37:53;;;;;;;8.00;3.13;;;;;21.50;98898.00;;;;2078725;28;20278;-69
2023/12/11 00:38:53;;;;;;;7.67;3.20;;;;;21.50;98910.00;;;;2079283;28;20217;-69
2023/12/11 00:39:54;;;;;;;8.03;3.40;;;;;21.50;98920.00;;;;2070045;28;20236;-69
2023/12/11 00:40:54;;;;;;;6.70;3.40;;;;;21.50;98927.00;;;;2080144;28;20213;-69
2023/12/11 00:41:54;;;;;;;11.13;3.23;;;;;21.50;98907.00;;;;2079768;28;20314;-69
2023/12/11 00:42:55;;;;;;;9.33;2.83;;;;;21.50;98917.00;;;;2080295;28;20201;-69
2023/12/11 00:43:55;;;;;;;7.03;3.40;;;;;21.40;98909.00;;;;2079541;28;20201;-69
2023/12/11 00:44:55;;;;;;;6.33;3.40;;;;;21.40;98907.00;;;;2072267;28;20202;-69
2023/12/11 00:45:56;;;;;;;6.40;2.90;;;;;21.40;98905.00;;;;2087641;28;20573;-69
2023/12/11 00:46:56;;;;;;;7.37;3.17;;;;;21.40;98915.00;;;;2082374;28;20738;-69
2023/12/11 00:47:56;;;;;;;6.70;3.80;;;;;21.40;98918.00;;;;2077973;28;20701;-69
2023/12/11 00:48:57;;;;;;;6.40;2.93;;;;;21.40;98909.00;;;;2079353;28;20213;-69
2023/12/11 00:49:57;;;;;;;8.70;3.20;;;;;21.50;98914.00;;;;2070488;28;20248;-69
2023/12/11 00:50:58;;;;;;;7.17;3.23;;;;;21.40;98915.00;;;;2079561;28;20217;-69
2023/12/11 00:51:58;;;;;;;9.13;2.90;;;;;21.40;98909.00;;;;2080244;28;20205;-69
2023/12/11 00:52:58;;;;;;;8.17;3.37;;;;;21.40;98909.00;;;;2080118;28;20232;-69
2023/12/11 00:53:59;;;;;;;8.00;2.90;;;;;21.40;98904.00;;;;2079661;28;20763;-69
2023/12/11 00:54:59;;;;;;;6.63;2.73;;;;;21.40;98901.00;;;;2072705;28;20618;-69
2023/12/11 00:55:59;;;;;;;7.97;3.30;;;;;21.40;98907.00;;;;2087032;28;20704;-69
2023/12/11 00:57:00;;;;;;;5.87;3.00;;;;;21.40;98904.00;;;;2084866;28;20612;-69
2023/12/11 00:58:00;;;;;;;9.23;3.10;;;;;21.40;98907.00;;;;2079673;28;20634;-69
2023/12/11 00:59:00;;;;;;;7.03;2.47;;;;;21.40;98908.00;;;;2078209;28;20579;-69
2023/12/11 01:00:01;;;;;;;5.07;2.13;;;;;21.40;98912.00;;;;2072136;28;20602;-69
2023/12/11 01:01:01;;;;;;;5.40;3.00;;;;;21.40;98915.00;;;;2087151;28;20236;-69
2023/12/11 01:02:01;;;;;;;8.80;2.90;;;;;21.40;98903.00;;;;2084998;28;20213;-69
2023/12/11 01:03:03;;;;;;;6.43;2.90;;;;;21.40;98904.00;;;;2080115;28;20213;-69
2023/12/11 01:04:03;;;;;;;7.90;3.25;;;;;21.40;98908.00;;;;2079250;28;20218;-69
2023/12/11 01:05:04;;;;;;;6.87;2.70;;;;;21.40;98884.00;;;;2069888;28;20228;-69
2023/12/11 01:06:04;;;;;;;7.40;2.60;;;;;21.40;98905.00;;;;2080031;28;20616;-69
2023/12/11 01:07:05;;;;;;;9.03;3.10;;;;;21.40;98911.00;;;;2079666;28;20221;-69
2023/12/11 01:08:07;;;;;;;7.97;3.17;;;;;21.40;98911.00;;;;2080117;28;20681;-69
2023/12/11 01:09:07;;;;;;;7.75;3.28;;;;;21.40;98908.00;;;;2079097;28;20873;-69
2023/12/11 01:10:08;;;;;;;7.60;3.00;;;;;21.40;98908.00;;;;2070408;28;20241;-69
2023/12/11 01:11:09;;;;;;;7.95;2.97;;;;;21.40;98905.00;;;;2079455;28;20352;-69
2023/12/11 01:12:09;;;;;;;5.43;2.50;;;;;21.40;98909.00;;;;2080104;28;20224;-69
2023/12/11 01:13:09;;;;;;;8.13;2.90;;;;;21.40;98915.00;;;;2080043;28;20233;-69
2023/12/11 01:14:10;;;;;;;6.90;2.77;;;;;21.40;98910.00;;;;2079296;28;20272;-69
2023/12/11 01:15:10;;;;;;;5.83;2.57;;;;;21.40;98912.00;;;;2074000;28;20362;-69
2023/12/11 01:16:10;;;;;;;5.20;2.50;;;;;21.30;98910.00;;;;2088699;28;20314;-69
2023/12/11 01:17:10;;;;;;;9.50;3.00;;;;;21.30;98912.00;;;;2084176;28;20243;-69
2023/12/11 01:18:11;;;;;;;9.87;3.33;;;;;21.30;98925.00;;;;2079624;28;20205;-69
2023/12/11 01:19:11;;;;;;;7.13;3.30;;;;;21.30;98914.00;;;;2079197;28;20209;-69
2023/12/11 01:20:11;;;;;;;6.60;3.30;;;;;21.40;98917.00;;;;2070347;28;20227;-69
2023/12/11 01:21:12;;;;;;;5.93;2.37;;;;;21.30;98905.00;;;;2081734;28;20221;-69
2023/12/11 01:22:12;;;;;;;8.07;3.00;;;;;21.30;98919.00;;;;2080347;28;20221;-69
2023/12/11 01:23:12;;;;;;;5.50;2.33;;;;;21.30;98904.00;;;;2079455;28;20278;-69
2023/12/11 01:24:13;;;;;;;7.77;2.73;;;;;21.30;98919.00;;;;2079848;28;20221;-69
2023/12/11 01:25:13;;;;;;;8.10;3.50;;;;;21.30;98899.00;;;;2074191;28;20273;-69
2023/12/11 01:26:13;;;;;;;7.80;2.53;;;;;21.30;98910.00;;;;2089819;28;22819;-69
2023/12/11 01:27:14;;;;;;;7.30;3.20;;;;;21.30;98908.00;;;;2083961;28;20226;-69
2023/12/11 01:28:14;;;;;;;10.13;2.40;;;;;21.30;98914.00;;;;2080946;28;20235;-69
2023/12/11 01:29:14;;;;;;;7.87;2.73;;;;;21.30;98908.00;;;;2081473;28;20229;-69
2023/12/11 01:30:15;;;;;;;4.93;2.50;;;;;21.30;98909.00;;;;2075707;28;20234;-69
2023/12/11 01:31:15;;;;;;;8.33;2.67;;;;;21.30;98907.00;;;;2089092;28;20272;-69
2023/12/11 01:32:15;;;;;;;5.70;2.50;;;;;21.30;98900.00;;;;2084668;28;20245;-69
2023/12/11 01:33:15;;;;;;;5.93;2.37;;;;;21.30;98906.00;;;;2080872;28;20228;-69
2023/12/11 01:34:16;;;;;;;6.40;2.63;;;;;21.30;98895.00;;;;2081474;28;20220;-69
2023/12/11 01:35:16;;;;;;;7.37;3.00;;;;;21.10;98906.00;;;;2076100;28;20223;-69
2023/12/11 01:36:16;;;;;;;9.33;2.97;;;;;21.30;98900.00;;;;2089099;28;20216;-69
2023/12/11 01:37:18;;;;;;;5.70;2.17;;;;;21.30;98903.00;;;;2076709;28;20212;-69
2023/12/11 01:38:18;;;;;;;9.07;3.22;;;;;21.30;98880.00;;;;2088564;28;20240;-69
2023/12/11 01:39:19;;;;;;;6.10;2.33;;;;;21.30;98892.00;;;;2082467;28;20592;-69
2023/12/11 01:40:19;;;;;;;4.07;2.50;;;;;21.30;98898.00;;;;2075310;28;20236;-69
2023/12/11 01:41:19;;;;;;;11.43;3.20;;;;;21.30;98904.00;;;;2089114;28;20251;-69
2023/12/11 01:42:20;;;;;;;6.23;2.00;;;;;21.20;98898.00;;;;2083553;28;20618;-69
2023/12/11 01:43:20;;;;;;;7.07;2.47;;;;;21.20;98884.00;;;;2080916;28;20324;-69
2023/12/11 01:44:20;;;;;;;8.90;2.90;;;;;21.30;98902.00;;;;2080088;28;20673;-69
2023/12/11 01:45:21;;;;;;;4.30;2.43;;;;;21.20;98896.00;;;;2076743;28;20235;-69
2023/12/11 01:46:21;;;;;;;8.53;2.67;;;;;21.20;98903.00;;;;2089115;28;20213;-69
2023/12/11 01:47:22;;;;;;;7.63;2.93;;;;;21.20;98893.00;;;;2077936;28;20305;-69
2023/12/11 01:48:22;;;;;;;7.10;2.67;;;;;21.20;98895.00;;;;2072029;28;20222;-69
2023/12/11 01:49:22;;;;;;;7.17;2.40;;;;;21.20;98902.00;;;;2072459;28;20218;-69
2023/12/11 01:50:23;;;;;;;7.00;2.67;;;;;21.20;98895.00;;;;2077075;28;20243;-69
2023/12/11 01:51:23;;;;;;;7.97;3.17;;;;;21.20;98895.00;;;;2088536;28;20582;-69
2023/12/11 01:52:24;;;;;;;5.10;2.27;;;;;21.20;98897.00;;;;2080676;28;20677;-69
2023/12/11 01:53:26;;;;;;;6.70;2.40;;;;;21.20;98884.00;;;;2072356;28;20221;-69
2023/12/11 01:54:26;;;;;;;7.13;2.40;;;;;21.20;98857.00;;;;2067306;28;20215;-69
2023/12/11 01:55:28;;;;;;;6.93;2.37;;;;;21.20;98897.00;;;;2054798;28;20647;-69
2023/12/11 01:56:28;;;;;;;8.88;3.45;;;;;21.20;98911.00;;;;2079576;28;20229;-69
2023/12/11 01:57:28;;;;;;;5.40;2.37;;;;;21.20;98906.00;;;;2079879;28;20241;-69
2023/12/11 01:58:29;;;;;;;7.57;2.50;;;;;21.20;98910.00;;;;2063718;28;20679;-69
2023/12/11 01:59:30;;;;;;;8.93;3.37;;;;;21.20;98896.00;;;;2062964;28;20211;-69
2023/12/11 02:00:30;;;;;;;8.60;2.63;;;;;21.20;98893.00;;;;2055940;28;20588;-69
2023/12/11 02:01:30;;;;;;;9.97;2.80;;;;;21.20;98898.00;;;;2063049;28;20258;-69
2023/12/11 02:02:30;;;;;;;8.50;2.90;;;;;21.20;98894.00;;;;2072482;28;20217;-69
2023/12/11 02:03:31;;;;;;;8.37;2.77;;;;;21.20;98887.00;;;;2074772;28;20215;-69
2023/12/11 02:04:31;;;;;;;6.97;2.10;;;;;21.20;98894.00;;;;2080683;28;20205;-69
2023/12/11 02:05:31;;;;;;;7.70;2.70;;;;;21.20;98885.00;;;;2077452;28;20205;-69
2023/12/11 02:06:32;;;;;;;7.97;2.70;;;;;21.20;98895.00;;;;2088616;28;20216;-69
2023/12/11 02:07:32;;;;;;;5.80;2.07;;;;;21.20;98895.00;;;;2081164;28;20300;-70
2023/12/11 02:08:32;;;;;;;8.40;3.17;;;;;21.20;98894.00;;;;2081026;28;20214;-70
2023/12/11 02:09:33;;;;;;;7.30;2.33;;;;;21.20;98903.00;;;;2080680;28;20343;-70
2023/12/11 02:10:33;;;;;;;7.00;2.57;;;;;21.20;98893.00;;;;2078103;28;20221;-70
2023/12/11 02:11:33;;;;;;;7.70;2.50;;;;;21.20;98897.00;;;;2087092;28;20216;-69
2023/12/11 02:12:34;;;;;;;7.10;2.37;;;;;21.20;98888.00;;;;2075802;28;20234;-69
2023/12/11 02:13:34;;;;;;;8.60;2.80;;;;;21.20;98884.00;;;;2081232;28;20220;-69
2023/12/11 02:14:34;;;;;;;8.30;2.60;;;;;21.10;98885.00;;;;2079830;28;20233;-69
2023/12/11 02:15:39;;;;;;;6.73;2.53;;;;;21.20;98870.00;;;;2069207;28;20216;-69
2023/12/11 02:16:39;;;;;;;10.73;3.70;;;;;21.10;98868.00;;;;2080061;28;20209;-69
2023/12/11 02:17:39;;;;;;;7.60;2.87;;;;;21.10;98869.00;;;;2080494;28;20908;-69
2023/12/11 02:18:40;;;;;;;8.73;2.83;;;;;21.20;98866.00;;;;2070844;28;20698;-69
2023/12/11 02:19:40;;;;;;;8.77;2.90;;;;;21.10;98864.00;;;;2070231;28;23023;-69
2023/12/11 02:20:41;;;;;;;7.33;2.50;;;;;21.10;98874.00;;;;2075330;28;20828;-69
2023/12/11 02:21:41;;;;;;;7.50;2.43;;;;;21.10;98874.00;;;;2080265;28;20728;-69
2023/12/11 02:22:41;;;;;;;8.23;2.17;;;;;21.20;98844.00;;;;2081219;28;20295;-69
2023/12/11 02:24:02;;;;;;;7.00;2.40;;;;;21.10;98871.00;;;;2079796;28;20295;-69
2023/12/11 02:25:02;;;;;;;6.82;2.33;;;;;21.10;98851.00;;;;2072445;28;20233;-69
2023/12/11 02:26:12;;;;;;;8.00;3.03;;;;;21.10;98862.00;;;;2071277;28;20243;-69
2023/12/11 02:27:13;;;;;;;6.20;2.30;;;;;21.10;98854.00;;;;2073214;28;20581;-69
2023/12/11 02:28:13;;;;;;;5.30;2.27;;;;;21.10;98860.00;;;;2071404;28;20261;-69
2023/12/11 02:29:13;;;;;;;11.17;2.77;;;;;21.10;98867.00;;;;2072127;28;20253;-69
2023/12/11 02:30:14;;;;;;;7.80;2.10;;;;;21.10;98880.00;;;;2069482;28;20237;-69
2023/12/11 02:31:14;;;;;;;11.43;2.80;;;;;21.10;98877.00;;;;2088150;28;20247;-69
2023/12/11 02:32:17;;;;;;;7.17;2.20;;;;;21.10;98885.00;;;;2084225;28;20218;-69
2023/12/11 02:33:17;;;;;;;10.05;2.38;;;;;21.10;98865.00;;;;2080560;28;20270;-69
2023/12/11 02:34:18;;;;;;;11.13;3.10;;;;;21.10;98860.00;;;;2081052;28;20228;-69
2023/12/11 02:35:18;;;;;;;8.47;3.37;;;;;21.10;98866.00;;;;2075263;28;20782;-69
2023/12/11 02:36:18;;;;;;;6.00;2.27;;;;;21.10;98859.00;;;;2088628;28;20254;-69
2023/12/11 02:37:19;;;;;;;6.20;2.43;;;;;21.10;98858.00;;;;2083827;28;20222;-69
2023/12/11 02:38:19;;;;;;;9.13;2.53;;;;;21.10;98862.00;;;;2080100;28;20241;-69
2023/12/11 02:39:19;;;;;;;7.77;2.30;;;;;21.10;98873.00;;;;2079534;28;20278;-69
2023/12/11 02:40:20;;;;;;;9.23;2.47;;;;;21.10;98859.00;;;;2066934;28;20253;-70
2023/12/11 02:41:20;;;;;;;9.60;2.50;;;;;21.10;98862.00;;;;2088277;28;20220;-70
2023/12/11 02:42:20;;;;;;;6.80;2.23;;;;;21.20;98857.00;;;;2088179;28;20290;-69
2023/12/11 02:43:21;;;;;;;8.83;2.00;;;;;21.20;98855.00;;;;2080711;28;20217;-70
2023/12/11 02:44:21;;;;;;;5.50;2.33;;;;;21.20;98852.00;;;;2080862;28;20231;-70
2023/12/11 02:45:21;;;;;;;9.70;2.57;;;;;21.20;98850.00;;;;2076832;28;20240;-70
2023/12/11 02:46:21;;;;;;;8.07;2.67;;;;;21.20;98850.00;;;;2088901;28;20279;-70
2023/12/11 02:47:22;;;;;;;8.40;2.43;;;;;21.20;98843.00;;;;2082802;28;20228;-70
2023/12/11 02:48:22;;;;;;;10.60;2.80;;;;;21.20;98851.00;;;;2080796;28;20279;-70
2023/12/11 02:49:22;;;;;;;6.53;2.70;;;;;21.20;98835.00;;;;2080961;28;20221;-70
2023/12/11 02:50:23;;;;;;;8.10;2.17;;;;;21.10;98837.00;;;;2071071;28;20218;-70
2023/12/11 02:51:23;;;;;;;9.00;2.53;;;;;21.20;98832.00;;;;2079768;28;20218;-70
2023/12/11 02:52:23;;;;;;;7.13;2.77;;;;;21.20;98834.00;;;;2080381;28;20248;-70
2023/12/11 02:53:24;;;;;;;8.20;3.17;;;;;21.20;98829.00;;;;2081009;28;20214;-69
2023/12/11 02:54:24;;;;;;;13.00;2.63;;;;;21.20;98826.00;;;;2080658;28;20237;-69
2023/12/11 02:55:24;;;;;;;6.77;2.60;;;;;21.10;98828.00;;;;2076823;28;20229;-69
2023/12/11 02:56:25;;;;;;;8.37;2.50;;;;;21.20;98827.00;;;;2088163;28;20219;-69
2023/12/11 02:57:25;;;;;;;5.20;2.03;;;;;21.20;98822.00;;;;2086319;28;20224;-69
2023/12/11 02:58:25;;;;;;;6.97;2.53;;;;;21.10;98818.00;;;;2072761;28;20239;-69
2023/12/11 02:59:26;;;;;;;7.10;2.40;;;;;21.10;98814.00;;;;2076883;28;20224;-69
2023/12/11 03:00:27;;;;;;;11.23;2.10;;;;;21.10;98824.00;;;;2070256;28;20214;-69
2023/12/11 03:01:27;;;;;;;8.37;2.87;;;;;21.10;98806.00;;;;2080980;28;20294;-69
2023/12/11 03:02:27;;;;;;;8.03;2.73;;;;;21.10;98818.00;;;;2080449;28;20210;-69
2023/12/11 03:03:27;;;;;;;11.33;3.00;;;;;21.10;98812.00;;;;2080912;28;20290;-69
2023/12/11 03:04:28;;;;;;;7.20;2.90;;;;;21.10;98804.00;;;;2080941;28;20221;-69
2023/12/11 03:05:28;;;;;;;8.20;2.70;;;;;21.10;98802.00;;;;2069930;28;20230;-69
2023/12/11 03:06:29;;;;;;;4.47;2.30;;;;;21.10;98810.00;;;;2080247;28;20631;-69
2023/12/11 03:07:29;;;;;;;9.27;3.20;;;;;21.10;98801.00;;;;2079729;28;20612;-69
2023/12/11 03:08:30;;;;;;;8.10;2.57;;;;;21.10;98796.00;;;;2080665;28;20449;-69
2023/12/11 03:09:30;;;;;;;6.10;2.10;;;;;21.10;98806.00;;;;2080625;28;20663;-69
2023/12/11 03:10:33;;;;;;;7.77;2.70;;;;;21.10;98801.00;;;;2070840;28;20224;-69
2023/12/11 03:11:33;;;;;;;6.85;2.83;;;;;21.10;98804.00;;;;2080828;28;20214;-69
2023/12/11 03:12:34;;;;;;;7.83;2.63;;;;;21.10;98787.00;;;;2078246;28;20208;-69
2023/12/11 03:13:34;;;;;;;9.50;2.60;;;;;21.10;98785.00;;;;2079611;28;20214;-69
2023/12/11 03:14:34;;;;;;;6.33;2.23;;;;;21.10;98800.00;;;;2079950;28;20240;-69
2023/12/11 03:15:35;;;;;;;8.00;2.23;;;;;21.00;98780.00;;;;2068452;28;20205;-69
2023/12/11 03:16:35;;;;;;;10.30;2.17;;;;;21.00;98783.00;;;;2076036;28;20299;-69
2023/12/11 03:17:35;;;;;;;8.30;2.97;;;;;21.00;98781.00;;;;2077398;28;20206;-69
2023/12/11 03:18:36;;;;;;;7.90;2.60;;;;;21.00;98783.00;;;;2078767;28;20206;-69
2023/12/11 03:19:36;;;;;;;8.10;2.40;;;;;21.00;98781.00;;;;2079000;28;20209;-69
2023/12/11 03:20:37;;;;;;;7.10;2.40;;;;;21.00;98796.00;;;;2071245;28;20218;-69
2023/12/11 03:21:37;;;;;;;5.73;2.00;;;;;21.00;98788.00;;;;2079944;28;20630;-69
2023/12/11 03:22:37;;;;;;;6.93;2.80;;;;;21.00;98792.00;;;;2080469;28;20629;-69
2023/12/11 03:23:38;;;;;;;5.57;2.00;;;;;21.00;98788.00;;;;2080825;28;20711;-69
2023/12/11 03:24:38;;;;;;;6.67;2.13;;;;;21.00;98781.00;;;;2079673;28;20214;-69
2023/12/11 03:25:38;;;;;;;7.63;2.70;;;;;21.00;98786.00;;;;2070872;28;20214;-69
2023/12/11 03:26:39;;;;;;;5.93;2.23;;;;;21.00;98784.00;;;;2077085;28;20205;-69
2023/12/11 03:27:39;;;;;;;8.40;2.40;;;;;21.00;98798.00;;;;2080727;28;20244;-69
2023/12/11 03:28:39;;;;;;;9.43;2.40;;;;;21.00;98781.00;;;;2080954;28;20214;-69
2023/12/11 03:29:41;;;;;;;8.50;2.60;;;;;21.00;98796.00;;;;2085028;28;20247;-70
2023/12/11 03:30:42;;;;;;;7.18;2.50;;;;;21.00;98776.00;;;;2079011;28;20712;-69
2023/12/11 03:31:42;;;;;;;8.80;2.60;;;;;21.00;98773.00;;;;2079850;28;20221;-69
2023/12/11 03:32:43;;;;;;;7.70;2.40;;;;;21.00;98775.00;;;;2079434;28;20218;-69
2023/12/11 03:33:43;;;;;;;11.00;2.67;;;;;21.00;98779.00;;;;2079133;28;20244;-69
2023/12/11 03:34:43;;;;;;;7.97;2.57;;;;;21.00;98771.00;;;;2070017;28;20205;-69
2023/12/11 03:35:44;;;;;;;8.47;2.70;;;;;21.00;98769.00;;;;2081071;28;20245;-69
2023/12/11 03:36:44;;;;;;;8.43;2.77;;;;;21.00;98766.00;;;;2086501;28;20239;-69
2023/12/11 03:37:44;;;;;;;9.73;2.10;;;;;21.00;98766.00;;;;2079938;28;20218;-69
2023/12/11 03:38:45;;;;;;;7.70;2.50;;;;;21.00;98763.00;;;;2080064;28;20209;-69
2023/12/11 03:39:45;;;;;;;7.00;2.37;;;;;20.90;98754.00;;;;2071065;28;20209;-69
2023/12/11 03:40:45;;;;;;;8.93;2.80;;;;;21.00;98768.00;;;;2079473;28;20210;-69
2023/12/11 03:41:46;;;;;;;7.80;2.47;;;;;21.00;98781.00;;;;2080475;28;20232;-69
2023/12/11 03:42:46;;;;;;;12.70;3.00;;;;;21.00;98777.00;;;;2080166;28;20798;-69
2023/12/11 03:43:46;;;;;;;6.83;2.23;;;;;21.00;98764.00;;;;2080452;28;20217;-69
2023/12/11 03:44:47;;;;;;;8.30;2.30;;;;;21.00;98764.00;;;;2070732;28;20205;-69
2023/12/11 03:45:47;;;;;;;7.73;2.90;;;;;20.90;98783.00;;;;2080029;28;20209;-69
2023/12/11 03:46:48;;;;;;;5.60;1.93;;;;;20.90;98769.00;;;;2080533;28;20225;-69
2023/12/11 03:47:48;;;;;;;6.47;2.00;;;;;20.90;98753.00;;;;2079918;28;20217;-69
2023/12/11 03:48:48;;;;;;;9.47;2.83;;;;;20.90;98777.00;;;;2079580;28;20245;-69
2023/12/11 03:49:49;;;;;;;8.43;2.20;;;;;20.90;98769.00;;;;2070940;28;20229;-69
2023/12/11 03:50:49;;;;;;;7.13;2.20;;;;;20.90;98770.00;;;;2087081;28;20201;-69
2023/12/11 03:51:50;;;;;;;6.93;2.10;;;;;20.90;98766.00;;;;2086764;28;20213;-69
2023/12/11 03:52:50;;;;;;;8.20;2.30;;;;;20.90;98776.00;;;;2079979;28;20460;-69
2023/12/11 03:53:50;;;;;;;6.33;2.13;;;;;20.90;98769.00;;;;2080506;28;20209;-69
2023/12/11 03:54:51;;;;;;;7.00;2.00;;;;;20.90;98772.00;;;;2070308;28;20241;-69
2023/12/11 03:55:52;;;;;;;6.43;1.88;;;;;20.90;98784.00;;;;2079865;28;20295;-69
2023/12/11 03:56:53;;;;;;;7.50;2.10;;;;;20.90;98796.00;;;;2080067;28;20320;-69
2023/12/11 03:57:53;;;;;;;7.30;2.20;;;;;20.90;98783.00;;;;2080159;28;20325;-69
2023/12/11 03:58:53;;;;;;;7.50;2.13;;;;;20.90;98793.00;;;;2080130;28;20619;-69
2023/12/11 03:59:54;;;;;;;8.80;2.17;;;;;20.90;98779.00;;;;2070193;28;21436;-69
2023/12/11 04:00:54;;;;;;;5.97;2.27;;;;;20.90;98781.00;;;;2080182;28;20712;-69
2023/12/11 04:01:54;;;;;;;7.90;1.60;;;;;20.90;98774.00;;;;2079654;28;20696;-69
2023/12/11 04:02:55;;;;;;;7.63;2.27;;;;;20.90;98780.00;;;;2080045;28;20217;-69
2023/12/11 04:03:55;;;;;;;8.27;2.50;;;;;20.90;98769.00;;;;2079338;28;20222;-69
2023/12/11 04:04:55;;;;;;;5.63;2.03;;;;;20.90;98766.00;;;;2070393;28;20222;-69
2023/12/11 04:05:55;;;;;;;6.70;2.30;;;;;20.90;98772.00;;;;2080373;28;20213;-69
2023/12/11 04:06:56;;;;;;;7.97;2.50;;;;;20.90;98759.00;;;;2077725;28;20214;-69
2023/12/11 04:07:57;;;;;;;8.97;2.23;;;;;20.90;98754.00;;;;2080162;28;20229;-69
2023/12/11 04:08:57;;;;;;;7.33;2.10;;;;;20.90;98766.00;;;;2079442;28;20590;-69
2023/12/11 04:09:57;;;;;;;9.33;2.30;;;;;20.90;98754.00;;;;2067950;28;20232;-70
2023/12/11 04:10:58;;;;;;;7.10;1.90;;;;;20.90;98773.00;;;;2079211;28;20275;-70
2023/12/11 04:11:58;;;;;;;6.30;2.13;;;;;20.90;98757.00;;;;2079955;28;20221;-70
2023/12/11 04:12:59;;;;;;;8.70;1.90;;;;;20.90;98757.00;;;;2078548;28;20531;-70
2023/12/11 04:14:00;;;;;;;7.07;2.40;;;;;20.90;98743.00;;;;2079835;28;20217;-70
2023/12/11 04:15:00;;;;;;;5.23;2.10;;;;;20.90;98736.00;;;;2066774;28;20692;-70
2023/12/11 04:16:00;;;;;;;7.43;3.03;;;;;20.90;98745.00;;;;2079634;28;20264;-70
2023/12/11 04:17:01;;;;;;;7.97;2.13;;;;;20.90;98748.00;;;;2080257;28;20701;-70
2023/12/11 04:18:01;;;;;;;7.57;2.23;;;;;20.90;98742.00;;;;2078215;28;20623;-70
2023/12/11 04:19:02;;;;;;;7.07;2.00;;;;;20.90;98742.00;;;;2079821;28;20209;-70
2023/12/11 04:20:04;;;;;;;9.95;2.45;;;;;20.90;98746.00;;;;2070853;28;20275;-70
2023/12/11 04:21:07;;;;;;;8.13;2.75;;;;;20.90;98752.00;;;;2077982;28;20221;-70
2023/12/11 04:22:07;;;;;;;8.43;2.70;;;;;20.90;98739.00;;;;2079816;28;20213;-74
2023/12/11 04:23:08;;;;;;;4.50;1.70;;;;;20.90;98746.00;;;;2079967;28;20224;-71
2023/12/11 04:24:08;;;;;;;7.53;2.10;;;;;20.90;98754.00;;;;2082151;28;20288;-70
2023/12/11 04:25:08;;;;;;;10.63;1.97;;;;;20.80;98759.00;;;;2065049;28;20745;-70
2023/12/11 04:26:09;;;;;;;7.77;1.97;;;;;20.80;98743.00;;;;2079961;28;20623;-70
2023/12/11 04:27:09;;;;;;;9.30;2.50;;;;;20.80;98757.00;;;;2080186;28;20216;-70
2023/12/11 04:28:09;;;;;;;6.73;1.90;;;;;20.90;98743.00;;;;2079568;28;20217;-70
2023/12/11 04:29:10;;;;;;;7.17;2.40;;;;;20.90;98744.00;;;;2079628;28;20239;-70
2023/12/11 04:30:10;;;;;;;7.03;2.40;;;;;20.80;98745.00;;;;2070118;28;20592;-70
2023/12/11 04:31:11;;;;;;;6.83;1.83;;;;;20.80;98749.00;;;;2080080;28;20217;-70
2023/12/11 04:32:11;;;;;;;9.73;2.33;;;;;20.60;98735.00;;;;2078487;28;20233;-70
2023/12/11 04:33:12;;;;;;;13.17;2.53;;;;;20.60;98746.00;;;;2078685;28;20319;-70
2023/12/11 04:34:12;;;;;;;6.83;1.77;;;;;20.80;98738.00;;;;2079003;28;20598;-70
2023/12/11 04:35:12;;;;;;;7.97;2.30;;;;;20.80;98749.00;;;;2068565;28;20233;-70
2023/12/11 04:36:13;;;;;;;7.47;2.03;;;;;20.80;98745.00;;;;2079883;28;20287;-70
2023/12/11 04:37:13;;;;;;;6.10;2.33;;;;;20.80;98751.00;;;;2079086;28;20209;-70
2023/12/11 04:38:13;;;;;;;9.53;2.03;;;;;20.80;98732.00;;;;2082373;28;20274;-70
2023/12/11 04:39:14;;;;;;;7.33;2.70;;;;;20.80;98751.00;;;;2079436;28;20249;-70
2023/12/11 04:40:14;;;;;;;8.67;3.23;;;;;20.80;98746.00;;;;2070203;28;20233;-70
2023/12/11 04:41:14;;;;;;;8.87;4.57;;;;;20.80;98747.00;;;;2080012;28;20213;-70
2023/12/11 04:42:15;;;;;;;11.80;5.00;;;;;20.80;98748.00;;;;2079420;28;20557;-70
2023/12/11 04:43:15;;;;;;;12.60;6.50;;;;;20.80;98738.00;;;;2080032;28;20214;-70
2023/12/11 04:44:15;;;;;;;12.77;7.10;;;;;20.80;98752.00;;;;2079440;28;20310;-70
2023/12/11 04:45:16;;;;;;;13.40;7.00;;;;;20.80;98741.00;;;;2070186;28;20257;-70
2023/12/11 04:46:16;;;;;;;11.70;7.50;;;;;20.80;98743.00;;;;2079902;28;20213;-70
2023/12/11 04:47:16;;;;;;;17.50;11.53;;;;;20.80;98727.00;;;;2079527;28;20218;-70
2023/12/11 04:48:17;;;;;;;20.80;10.73;;;;;20.80;98728.00;;;;2079794;28;20220;-70
2023/12/11 04:49:17;;;;;;;19.50;11.90;;;;;20.80;98724.00;;;;2078204;28;20217;-70
2023/12/11 04:50:17;;;;;;;19.10;10.40;;;;;20.80;98716.00;;;;2069125;28;20248;-70
2023/12/11 04:51:18;;;;;;;18.57;10.80;;;;;20.80;98730.00;;;;2079665;28;20263;-70
2023/12/11 04:52:18;;;;;;;21.77;11.80;;;;;20.80;98734.00;;;;2079658;28;20236;-70
2023/12/11 04:53:18;;;;;;;22.57;12.73;;;;;20.80;98734.00;;;;2079717;28;20229;-70
2023/12/11 04:54:19;;;;;;;24.67;12.90;;;;;20.80;98724.00;;;;2077071;28;20228;-70
2023/12/11 04:55:19;;;;;;;24.77;12.70;;;;;20.80;98723.00;;;;2070318;28;20249;-70
2023/12/11 04:56:23;;;;;;;19.90;12.63;;;;;20.80;98723.00;;;;2078522;28;20221;-70
2023/12/11 04:57:23;;;;;;;21.77;12.32;;;;;20.80;98717.00;;;;2078911;28;20240;-70
2023/12/11 04:58:23;;;;;;;20.73;12.50;;;;;20.80;98729.00;;;;2076548;28;20752;-70
2023/12/11 04:59:24;;;;;;;24.80;13.77;;;;;20.80;98732.00;;;;2079805;28;20604;-70
2023/12/11 05:00:24;;;;;;;20.97;13.40;;;;;20.80;98734.00;;;;2069802;28;20213;-70
2023/12/11 05:01:26;;;;;;;26.50;14.43;;;;;20.80;98730.00;;;;2075120;28;20229;-70
2023/12/11 05:02:26;;;;;;;24.00;14.95;;;;;20.80;98722.00;;;;2079162;28;20241;-70